Time;durP1;ratioP1;P1;durP2;ratioP2;P2;SDS_P1;SDS_P2;PMS_P1;PMS_P2;Temp;Humidity;BMP_temperature;BMP_pressure;BME280_temperature;BME280_humidity;BME280_pressure;Samples;Min_cycle;Max_cycle;Signal;HPM_P1;HPM_P2
2022/12/01 00:02:04;;;;;;;114.03;38.35;;;6.10;99.90;;;;;;6160788;23;20028;-79
2022/12/01 00:04:30;;;;;;;110.30;40.55;;;6.00;99.90;;;;;;6186626;23;20017;-79
2022/12/01 00:06:55;;;;;;;118.28;38.45;;;6.00;99.90;;;;;;6186261;23;20028;-79
2022/12/01 00:12:05;;;;;;;115.07;38.50;;;6.10;99.90;;;;;;6159797;23;20028;-79
2022/12/01 00:14:31;;;;;;;112.10;40.35;;;6.00;99.90;;;;;;6159783;23;20045;-79
2022/12/01 00:16:57;;;;;;;120.03;40.55;;;6.00;99.90;;;;;;6159643;23;20024;-79
2022/12/01 00:19:26;;;;;;;117.22;40.67;;;6.00;99.90;;;;;;6186467;23;20036;-79
2022/12/01 00:21:52;;;;;;;115.75;40.92;;;6.10;99.90;;;;;;6186459;23;20017;-79
2022/12/01 00:24:18;;;;;;;115.78;39.42;;;6.00;99.90;;;;;;6186110;23;20020;-79
2022/12/01 00:26:43;;;;;;;109.32;39.42;;;6.00;99.90;;;;;;6186374;23;20020;-79
2022/12/01 00:29:09;;;;;;;108.70;39.00;;;6.00;99.90;;;;;;6186379;23;20021;-79
2022/12/01 00:31:35;;;;;;;111.20;40.50;;;6.00;99.90;;;;;;6186337;23;20041;-79
2022/12/01 00:34:00;;;;;;;109.22;38.55;;;6.00;99.90;;;;;;6186369;23;20096;-79
2022/12/01 00:36:26;;;;;;;124.88;43.13;;;6.00;99.90;;;;;;6186394;23;20014;-79
2022/12/01 00:38:54;;;;;;;128.25;41.30;;;6.00;99.90;;;;;;6159689;23;20400;-79
2022/12/01 00:41:20;;;;;;;109.80;38.42;;;6.00;99.90;;;;;;6186033;23;20346;-79
2022/12/01 00:43:45;;;;;;;103.30;39.80;;;6.00;99.90;;;;;;6159620;23;20092;-79
2022/12/01 00:46:11;;;;;;;113.80;40.78;;;6.00;99.90;;;;;;6159605;23;20150;-79
2022/12/01 00:48:37;;;;;;;114.13;40.95;;;6.00;99.90;;;;;;6159691;23;20469;-79
2022/12/01 00:51:03;;;;;;;106.90;39.35;;;6.00;99.90;;;;;;6186175;23;20059;-78
2022/12/01 00:53:29;;;;;;;109.32;41.10;;;6.00;99.90;;;;;;6185789;23;20023;-79
2022/12/01 00:55:55;;;;;;;105.55;38.13;;;5.90;99.90;;;;;;6159645;23;20049;-79
2022/12/01 00:58:21;;;;;;;107.78;38.47;;;6.00;99.90;;;;;;6186217;23;20064;-79
2022/12/01 01:00:48;;;;;;;110.75;40.28;;;5.90;99.90;;;;;;6186226;23;20017;-79
2022/12/01 01:03:16;;;;;;;117.00;40.67;;;6.00;99.90;;;;;;6159488;23;20152;-79
2022/12/01 01:05:42;;;;;;;114.60;39.63;;;5.90;99.90;;;;;;6159502;23;20025;-79
2022/12/01 01:08:10;;;;;;;104.43;37.88;;;6.00;99.90;;;;;;6185876;23;20076;-79
2022/12/01 01:10:45;;;;;;;105.18;38.95;;;5.90;99.90;;;;;;6159553;23;20438;-78
2022/12/01 01:13:12;;;;;;;109.53;41.28;;;5.90;99.90;;;;;;6186248;23;20021;-79
2022/12/01 01:15:38;;;;;;;106.75;39.78;;;5.90;99.90;;;;;;6185720;23;20465;-78
2022/12/01 01:18:04;;;;;;;116.82;37.95;;;6.00;99.90;;;;;;6186218;23;20021;-79
2022/12/01 01:20:33;;;;;;;102.88;37.90;;;5.90;99.90;;;;;;6185768;23;20068;-79
2022/12/01 01:22:58;;;;;;;103.80;39.25;;;5.90;99.90;;;;;;6159357;23;20017;-79
2022/12/01 01:25:24;;;;;;;105.07;38.47;;;5.90;99.90;;;;;;6185839;23;20021;-79
2022/12/01 01:27:50;;;;;;;101.32;38.15;;;6.00;99.90;;;;;;6186112;23;20013;-79
2022/12/01 01:30:16;;;;;;;105.32;39.85;;;5.90;99.90;;;;;;6159457;23;20049;-79
2022/12/01 01:32:42;;;;;;;108.35;39.15;;;5.90;99.90;;;;;;6186013;23;20016;-79
2022/12/01 01:35:08;;;;;;;106.40;38.10;;;5.90;99.90;;;;;;6159341;23;20104;-79
2022/12/01 01:37:34;;;;;;;106.22;39.30;;;6.00;99.90;;;;;;6159344;23;20092;-79
2022/12/01 01:39:59;;;;;;;104.72;38.65;;;6.00;99.90;;;;;;6186059;23;20115;-79
2022/12/01 01:42:25;;;;;;;102.57;38.60;;;6.00;99.90;;;;;;6186082;23;20024;-79
2022/12/01 01:44:52;;;;;;;106.38;36.75;;;6.00;99.90;;;;;;6159378;23;20060;-79
2022/12/01 01:47:29;;;;;;;114.20;38.00;;;6.00;99.90;;;;;;6186013;23;20021;-79
2022/12/01 01:49:57;;;;;;;102.80;40.08;;;6.00;99.90;;;;;;6186423;23;20087;-79
2022/12/01 01:52:23;;;;;;;110.40;39.33;;;6.00;99.90;;;;;;6185897;23;20071;-79
2022/12/01 01:54:52;;;;;;;104.43;38.10;;;6.00;99.90;;;;;;6185997;23;20018;-79
2022/12/01 01:57:26;;;;;;;101.43;38.15;;;6.00;99.90;;;;;;6159373;23;20021;-79
2022/12/01 02:00:00;;;;;;;106.60;38.25;;;6.00;99.90;;;;;;6159343;23;20023;-78
2022/12/01 02:02:25;;;;;;;105.75;38.72;;;6.00;99.90;;;;;;6159330;23;20013;-79
2022/12/01 02:04:57;;;;;;;112.72;38.25;;;6.00;99.90;;;;;;6159767;23;20073;-78
2022/12/01 02:07:24;;;;;;;100.35;38.75;;;6.00;99.90;;;;;;6187826;23;20044;-79
2022/12/01 02:09:50;;;;;;;114.45;39.72;;;5.90;99.90;;;;;;6160951;23;20009;-78
2022/12/01 02:12:41;;;;;;;104.40;38.97;;;5.90;99.90;;;;;;6187201;23;20099;-79
2022/12/01 02:15:35;;;;;;;104.22;40.83;;;6.00;99.90;;;;;;6187278;23;20438;-78
2022/12/01 02:18:33;;;;;;;107.88;38.65;;;5.90;99.90;;;;;;6161150;23;20078;-78
2022/12/01 02:21:18;;;;;;;103.57;37.75;;;6.00;99.90;;;;;;6187535;23;20013;-79
2022/12/01 02:24:04;;;;;;;101.40;36.97;;;6.00;99.90;;;;;;6187344;23;20105;-79
2022/12/01 02:26:55;;;;;;;108.03;40.13;;;6.00;99.90;;;;;;6187533;23;20100;-79
2022/12/01 02:29:58;;;;;;;106.00;37.45;;;6.00;99.90;;;;;;6187217;23;20025;-78
2022/12/01 02:32:35;;;;;;;108.43;39.47;;;5.90;99.90;;;;;;6160625;23;20024;-78
2022/12/01 02:35:09;;;;;;;105.00;38.92;;;5.90;99.90;;;;;;6187216;23;20432;-79
2022/12/01 02:37:52;;;;;;;106.07;38.55;;;6.00;99.90;;;;;;6187042;23;20024;-78
2022/12/01 02:40:39;;;;;;;94.55;36.45;;;5.90;99.90;;;;;;6187470;23;20060;-78
2022/12/01 02:43:32;;;;;;;108.05;38.30;;;6.00;99.90;;;;;;6187434;23;20021;-79
2022/12/01 02:46:19;;;;;;;106.35;36.72;;;6.00;99.90;;;;;;6187050;23;20103;-78
2022/12/01 02:48:49;;;;;;;104.68;37.55;;;6.00;99.90;;;;;;6160676;23;20017;-79
2022/12/01 02:51:27;;;;;;;94.15;37.05;;;6.00;99.90;;;;;;6187215;23;20013;-78
2022/12/01 02:53:55;;;;;;;108.63;39.63;;;6.00;99.90;;;;;;6186959;23;20400;-79
2022/12/01 02:56:22;;;;;;;96.43;36.10;;;6.00;99.90;;;;;;6187223;23;20039;-79
2022/12/01 02:58:49;;;;;;;104.80;36.65;;;6.00;99.90;;;;;;6160468;23;20025;-79
2022/12/01 03:01:33;;;;;;;98.78;37.33;;;6.00;99.90;;;;;;6160450;23;20031;-78
2022/12/01 03:04:19;;;;;;;98.15;36.13;;;6.00;99.90;;;;;;6187279;23;20021;-79
2022/12/01 03:07:14;;;;;;;111.95;39.65;;;6.10;99.90;;;;;;6187185;23;20028;-79
2022/12/01 03:09:54;;;;;;;105.97;35.25;;;6.00;99.90;;;;;;6160489;23;20136;-79
2022/12/01 03:12:37;;;;;;;107.30;36.42;;;6.00;99.90;;;;;;6160401;23;20413;-79
2022/12/01 03:15:17;;;;;;;97.15;35.53;;;6.00;99.90;;;;;;6187153;23;20009;-79
2022/12/01 03:17:50;;;;;;;108.53;37.80;;;6.00;99.90;;;;;;6186209;23;20017;-79
2022/12/01 03:20:43;;;;;;;97.25;33.47;;;6.10;99.90;;;;;;6160349;23;20021;-79
2022/12/01 03:23:16;;;;;;;93.55;34.15;;;6.00;99.90;;;;;;6140939;23;20528;-79
2022/12/01 03:25:46;;;;;;;91.63;32.17;;;6.00;99.90;;;;;;6160331;23;20021;-78
2022/12/01 03:28:15;;;;;;;78.03;31.10;;;6.10;99.90;;;;;;6187192;23;20036;-78
2022/12/01 03:30:42;;;;;;;82.60;30.13;;;6.10;99.90;;;;;;6186927;23;20024;-78
2022/12/01 03:33:19;;;;;;;74.07;28.15;;;6.10;99.90;;;;;;6186822;23;20075;-78
2022/12/01 03:35:59;;;;;;;62.03;26.02;;;6.00;99.90;;;;;;6186900;23;20013;-79
2022/12/01 03:38:28;;;;;;;66.30;24.92;;;6.10;99.90;;;;;;6186964;23;20016;-78
2022/12/01 03:41:02;;;;;;;59.75;23.90;;;6.10;99.90;;;;;;6186893;23;20024;-79
2022/12/01 03:43:31;;;;;;;64.75;24.45;;;6.20;99.90;;;;;;6186901;23;20025;-78
2022/12/01 03:46:21;;;;;;;53.45;22.48;;;6.20;99.90;;;;;;6160049;23;20059;-78
2022/12/01 03:48:47;;;;;;;48.17;21.10;;;6.20;99.90;;;;;;6160170;23;20021;-79
2022/12/01 03:51:21;;;;;;;40.55;18.38;;;6.20;99.90;;;;;;6186794;23;20113;-79
2022/12/01 03:54:15;;;;;;;40.25;18.50;;;6.30;99.90;;;;;;6160068;23;20429;-79
2022/12/01 03:56:51;;;;;;;44.08;18.00;;;6.30;99.90;;;;;;6186740;23;20045;-79
2022/12/01 03:59:19;;;;;;;38.30;17.98;;;6.30;99.90;;;;;;6160050;23;20021;-79
2022/12/01 04:01:45;;;;;;;40.03;17.17;;;6.30;99.90;;;;;;6186229;23;20456;-79
2022/12/01 04:04:13;;;;;;;38.20;17.00;;;6.30;99.90;;;;;;6159904;23;20021;-79
2022/12/01 04:06:41;;;;;;;37.42;16.58;;;6.40;99.90;;;;;;6186367;23;20017;-79
2022/12/01 04:09:07;;;;;;;40.08;15.98;;;6.40;99.90;;;;;;6159968;23;20523;-79
2022/12/01 04:14:17;;;;;;;36.35;16.75;;;6.40;99.90;;;;;;6159891;23;20100;-79
2022/12/01 04:16:42;;;;;;;39.22;16.25;;;6.40;99.90;;;;;;6154704;23;20057;-79
2022/12/01 04:19:08;;;;;;;32.92;15.00;;;6.30;99.90;;;;;;6156677;23;20514;-79
2022/12/01 04:21:34;;;;;;;34.72;15.38;;;6.40;99.90;;;;;;6130261;23;20021;-79
2022/12/01 04:23:59;;;;;;;36.85;15.50;;;6.40;99.90;;;;;;6130263;23;20028;-79
2022/12/01 04:26:27;;;;;;;37.92;14.57;;;6.40;99.90;;;;;;6156657;23;20018;-79
2022/12/01 04:28:52;;;;;;;35.88;14.60;;;6.30;99.90;;;;;;6130214;23;20030;-79
2022/12/01 04:31:18;;;;;;;34.75;13.88;;;6.40;99.90;;;;;;6130152;23;20338;-79
2022/12/01 04:33:43;;;;;;;27.90;13.45;;;6.40;99.90;;;;;;6130249;23;20017;-79
2022/12/01 04:36:09;;;;;;;23.05;11.70;;;6.40;99.90;;;;;;6130248;23;20084;-79
2022/12/01 04:38:36;;;;;;;31.58;12.63;;;6.40;99.90;;;;;;6156573;23;20017;-79
2022/12/01 04:41:10;;;;;;;28.67;11.85;;;6.40;99.90;;;;;;6130114;23;20026;-79
2022/12/01 04:43:36;;;;;;;28.40;13.30;;;6.40;99.90;;;;;;6156351;23;20165;-79
2022/12/01 04:46:03;;;;;;;29.65;12.93;;;6.40;99.90;;;;;;6156529;23;20443;-79
2022/12/01 04:48:28;;;;;;;25.20;11.18;;;6.40;99.90;;;;;;6156532;23;20081;-79
2022/12/01 04:50:54;;;;;;;24.52;11.57;;;6.50;99.90;;;;;;6129941;23;20013;-79
2022/12/01 04:53:20;;;;;;;24.92;11.43;;;6.50;99.90;;;;;;6156276;23;20025;-79
2022/12/01 04:55:45;;;;;;;22.17;11.18;;;6.50;99.90;;;;;;6156563;23;20017;-79
2022/12/01 04:58:11;;;;;;;22.05;10.48;;;6.50;99.90;;;;;;6157102;23;20021;-79
2022/12/01 05:00:37;;;;;;;23.10;11.23;;;6.50;99.90;;;;;;6156477;23;20013;-79
2022/12/01 05:03:02;;;;;;;23.88;11.45;;;6.50;99.90;;;;;;6130043;23;20024;-79
2022/12/01 05:05:29;;;;;;;22.45;10.00;;;6.50;99.90;;;;;;6156261;23;20021;-79
2022/12/01 05:07:54;;;;;;;24.23;10.80;;;6.50;99.90;;;;;;6156462;23;20013;-79
2022/12/01 05:10:21;;;;;;;20.73;10.32;;;6.50;99.90;;;;;;6129994;23;20053;-78
2022/12/01 05:12:46;;;;;;;24.05;11.63;;;6.50;99.90;;;;;;6156283;23;20044;-78
2022/12/01 05:15:12;;;;;;;21.15;10.45;;;6.50;99.90;;;;;;6130011;23;20450;-78
2022/12/01 05:17:38;;;;;;;21.42;10.07;;;6.50;99.90;;;;;;6129775;23;20057;-79
2022/12/01 05:22:51;;;;;;;21.65;10.95;;;6.50;99.90;;;;;;6129934;23;20079;-79
2022/12/01 05:25:19;;;;;;;22.90;10.32;;;6.50;99.90;;;;;;6156018;23;20466;-79
2022/12/01 05:27:45;;;;;;;21.13;9.80;;;6.50;99.90;;;;;;6129938;23;20024;-79
2022/12/01 05:30:11;;;;;;;18.88;9.50;;;6.50;99.90;;;;;;6156377;23;20017;-79
2022/12/01 05:32:36;;;;;;;21.48;10.70;;;6.50;99.90;;;;;;6156227;23;20377;-79
2022/12/01 05:35:02;;;;;;;17.95;9.05;;;6.50;99.90;;;;;;6155894;23;20087;-79
2022/12/01 05:37:32;;;;;;;24.05;10.55;;;6.40;99.90;;;;;;6156524;23;20028;-79
2022/12/01 05:39:57;;;;;;;23.58;10.85;;;6.40;99.90;;;;;;6156993;23;20025;-79
2022/12/01 05:42:23;;;;;;;20.30;10.10;;;6.40;99.90;;;;;;6158590;23;20020;-79
2022/12/01 05:44:49;;;;;;;24.60;10.30;;;6.30;99.90;;;;;;6158164;23;20120;-79
2022/12/01 05:47:15;;;;;;;20.88;10.20;;;6.30;99.90;;;;;;6158156;23;20021;-79
2022/12/01 05:49:40;;;;;;;21.02;10.60;;;6.20;99.90;;;;;;6131749;23;20024;-79
2022/12/01 05:52:06;;;;;;;21.15;9.35;;;6.10;99.90;;;;;;6131612;23;20022;-79
2022/12/01 05:54:31;;;;;;;21.55;10.35;;;6.10;99.90;;;;;;6131674;23;20130;-79
2022/12/01 05:56:57;;;;;;;21.58;10.70;;;6.10;99.90;;;;;;6157920;23;20022;-79
2022/12/01 05:59:23;;;;;;;22.23;10.00;;;6.00;99.90;;;;;;6131634;23;20021;-79
2022/12/01 06:01:48;;;;;;;21.95;9.50;;;6.00;99.90;;;;;;6157988;23;20017;-79
2022/12/01 06:04:14;;;;;;;22.70;10.80;;;5.90;99.90;;;;;;6131608;23;20049;-79
2022/12/01 06:06:40;;;;;;;22.20;10.40;;;5.90;99.90;;;;;;6131580;23;20095;-79
2022/12/01 06:09:07;;;;;;;19.80;9.13;;;5.90;99.90;;;;;;6131522;23;20017;-79
2022/12/01 06:11:32;;;;;;;21.77;9.63;;;5.80;99.90;;;;;;6131287;23;20021;-79
2022/12/01 06:13:58;;;;;;;18.02;9.35;;;5.80;99.90;;;;;;6157942;23;20326;-79
2022/12/01 06:16:24;;;;;;;18.92;8.60;;;5.70;99.90;;;;;;6157483;23;20014;-79
2022/12/01 06:18:49;;;;;;;18.90;8.35;;;5.70;99.90;;;;;;6157515;23;20025;-79
2022/12/01 06:21:15;;;;;;;19.55;8.95;;;5.70;99.90;;;;;;6131464;23;20096;-79
2022/12/01 06:23:41;;;;;;;16.20;8.15;;;5.70;99.90;;;;;;6131375;23;20087;-79
2022/12/01 06:26:06;;;;;;;17.27;7.82;;;5.60;99.90;;;;;;6157467;23;20025;-79
2022/12/01 06:28:32;;;;;;;17.83;8.13;;;5.60;99.90;;;;;;6157446;23;20025;-79
2022/12/01 06:30:58;;;;;;;14.95;7.72;;;5.60;99.90;;;;;;6131244;23;20027;-79
2022/12/01 06:33:23;;;;;;;15.90;8.23;;;5.50;99.90;;;;;;6157345;23;20017;-79
2022/12/01 06:36:03;;;;;;;15.27;7.90;;;5.50;99.90;;;;;;6157350;23;20017;-79
2022/12/01 06:38:33;;;;;;;16.25;6.97;;;5.50;99.90;;;;;;6157717;23;20021;-79
2022/12/01 06:41:00;;;;;;;13.40;6.85;;;5.50;99.90;;;;;;6131227;23;20021;-79
2022/12/01 06:43:26;;;;;;;14.13;7.60;;;5.50;99.90;;;;;;6131148;23;20024;-79
2022/12/01 06:45:52;;;;;;;16.02;7.13;;;5.60;99.90;;;;;;6157626;23;20022;-79
2022/12/01 06:48:17;;;;;;;15.82;7.57;;;5.60;99.90;;;;;;6157049;23;20028;-79
2022/12/01 06:50:43;;;;;;;17.38;7.25;;;5.60;99.90;;;;;;6130847;23;20041;-79
2022/12/01 06:53:10;;;;;;;12.20;6.45;;;5.60;99.90;;;;;;6156788;23;20017;-79
2022/12/01 06:55:36;;;;;;;16.85;7.35;;;5.70;99.90;;;;;;6131095;23;20014;-79
2022/12/01 06:58:03;;;;;;;17.00;7.50;;;5.70;99.90;;;;;;6157520;23;20022;-79
2022/12/01 07:00:28;;;;;;;17.55;8.73;;;5.70;99.90;;;;;;6157527;23;20013;-79
2022/12/01 07:02:54;;;;;;;13.40;6.85;;;5.70;99.90;;;;;;6157066;23;20390;-79
2022/12/01 07:05:20;;;;;;;14.48;7.82;;;5.70;99.90;;;;;;6157165;23;20501;-79
2022/12/01 07:07:45;;;;;;;18.35;7.72;;;5.70;99.90;;;;;;6130988;23;20342;-79
2022/12/01 07:10:12;;;;;;;14.52;7.13;;;5.70;99.90;;;;;;6130913;23;20044;-79
2022/12/01 07:12:37;;;;;;;15.68;7.13;;;5.70;99.90;;;;;;6130529;23;20028;-79
2022/12/01 07:15:04;;;;;;;18.48;8.52;;;5.80;99.90;;;;;;6156773;23;20092;-79
2022/12/01 07:17:30;;;;;;;18.77;8.70;;;5.70;99.90;;;;;;6129814;23;20023;-79
2022/12/01 07:19:56;;;;;;;16.50;7.45;;;5.70;99.90;;;;;;6129709;23;20022;-79
2022/12/01 07:22:22;;;;;;;19.58;8.63;;;5.70;99.90;;;;;;6156832;23;20108;-79
2022/12/01 07:24:48;;;;;;;17.90;8.63;;;5.70;99.90;;;;;;6156907;23;20022;-79
2022/12/01 07:27:13;;;;;;;16.77;7.93;;;5.60;99.90;;;;;;6130482;23;20017;-79
2022/12/01 07:29:39;;;;;;;18.00;8.38;;;5.60;99.90;;;;;;6156767;23;20072;-79
2022/12/01 07:32:05;;;;;;;18.75;8.05;;;5.50;99.90;;;;;;6156802;23;20025;-79
2022/12/01 07:34:30;;;;;;;18.55;9.85;;;5.50;99.90;;;;;;6156601;23;20067;-80
2022/12/01 07:36:56;;;;;;;20.50;8.73;;;5.50;99.90;;;;;;6129434;23;20022;-79
2022/12/01 07:39:22;;;;;;;18.00;8.95;;;5.50;99.90;;;;;;6156779;23;20018;-79
2022/12/01 07:41:47;;;;;;;17.17;8.50;;;5.50;99.90;;;;;;6156153;23;20032;-78
2022/12/01 07:44:13;;;;;;;17.05;8.60;;;5.40;99.90;;;;;;6156698;23;20434;-79
2022/12/01 07:46:39;;;;;;;16.83;8.07;;;5.40;99.90;;;;;;6130248;23;20033;-78
2022/12/01 07:49:06;;;;;;;20.38;8.82;;;5.30;99.90;;;;;;6156379;23;20017;-79
2022/12/01 07:51:33;;;;;;;16.88;8.32;;;5.40;99.90;;;;;;6130128;23;20021;-78
2022/12/01 07:54:05;;;;;;;16.02;7.70;;;5.30;99.90;;;;;;6156502;23;20395;-78
2022/12/01 07:56:31;;;;;;;20.98;8.93;;;5.20;99.90;;;;;;6156311;23;20020;-78
2022/12/01 07:58:56;;;;;;;15.82;7.45;;;5.20;99.90;;;;;;6156564;23;20025;-78
2022/12/01 08:01:23;;;;;;;17.13;8.30;;;5.20;99.90;;;;;;6156601;23;20017;-79
2022/12/01 08:03:51;;;;;;;16.80;7.82;;;5.20;99.90;;;;;;6129886;23;20100;-79
2022/12/01 08:06:18;;;;;;;18.65;9.18;;;5.20;99.90;;;;;;6156147;23;20338;-79
2022/12/01 08:08:44;;;;;;;20.77;7.82;;;5.30;99.90;;;;;;6156101;23;20445;-77
2022/12/01 08:11:21;;;;;;;16.85;8.15;;;5.30;99.90;;;;;;6128833;23;20529;-78
2022/12/01 08:13:47;;;;;;;18.15;9.30;;;5.30;99.90;;;;;;6156257;23;20017;-79
2022/12/01 08:16:16;;;;;;;18.27;8.75;;;5.40;99.90;;;;;;6129869;23;20018;-79
2022/12/01 08:18:42;;;;;;;19.73;8.60;;;5.50;99.90;;;;;;6156430;23;20025;-79
2022/12/01 08:21:13;;;;;;;16.02;7.82;;;5.40;99.90;;;;;;6156493;23;20017;-79
2022/12/01 08:23:39;;;;;;;17.23;8.35;;;5.50;99.90;;;;;;6156369;23;20067;-79
2022/12/01 08:26:06;;;;;;;19.20;8.80;;;5.40;99.90;;;;;;6156390;23;20010;-78
2022/12/01 08:28:34;;;;;;;19.30;8.40;;;5.40;99.90;;;;;;6155866;23;20025;-78
2022/12/01 08:31:07;;;;;;;18.25;8.55;;;5.40;99.90;;;;;;6156614;23;20017;-79
2022/12/01 08:33:33;;;;;;;;;;;5.40;99.90;;;;;;6156818;23;20323;-79
2022/12/01 08:36:01;;;;;;;20.42;9.13;;;5.50;99.90;;;;;;6156138;23;20326;-79
2022/12/01 08:38:26;;;;;;;25.23;9.38;;;5.50;99.90;;;;;;6156277;23;20049;-79
2022/12/01 08:41:02;;;;;;;19.10;8.63;;;5.40;99.90;;;;;;6156413;23;20022;-79
2022/12/01 08:43:28;;;;;;;23.88;10.93;;;5.50;99.90;;;;;;6129937;23;20025;-79
2022/12/01 08:45:57;;;;;;;21.65;9.85;;;5.50;99.90;;;;;;6156330;23;20062;-79
2022/12/01 08:48:23;;;;;;;19.70;9.50;;;5.60;99.90;;;;;;6156122;23;20053;-79
2022/12/01 08:50:48;;;;;;;21.08;9.95;;;5.60;99.90;;;;;;6156387;23;20017;-79
2022/12/01 08:53:14;;;;;;;23.27;9.48;;;5.60;99.90;;;;;;6129974;23;20025;-79
2022/12/01 08:55:40;;;;;;;20.40;9.43;;;5.60;99.90;;;;;;6156429;23;20010;-79
2022/12/01 08:58:06;;;;;;;24.23;10.18;;;5.70;99.90;;;;;;6156385;23;20307;-78
2022/12/01 09:00:31;;;;;;;21.95;10.25;;;5.70;99.90;;;;;;6129956;23;20013;-79
2022/12/01 09:02:57;;;;;;;21.92;10.02;;;5.80;99.90;;;;;;6130013;23;20451;-79
2022/12/01 09:05:22;;;;;;;23.42;12.00;;;5.90;99.90;;;;;;6129885;23;20017;-79
2022/12/01 09:08:30;;;;;;;24.50;10.95;;;5.90;99.90;;;;;;6156136;23;20018;-79
2022/12/01 09:10:34;;;;;;;20.73;9.52;;;5.90;99.90;;;;;;6155974;23;20017;-79
2022/12/01 09:12:59;;;;;;;23.27;10.25;;;6.00;99.90;;;;;;6129920;23;20405;-79
2022/12/01 09:15:25;;;;;;;24.33;12.50;;;6.00;99.90;;;;;;6156976;23;20010;-78
2022/12/01 09:17:50;;;;;;;23.45;11.52;;;6.10;99.90;;;;;;6157849;23;20021;-78
2022/12/01 09:20:16;;;;;;;23.52;10.55;;;6.20;99.90;;;;;;6158179;23;20025;-78
2022/12/01 09:22:42;;;;;;;24.48;11.73;;;6.30;99.90;;;;;;6131948;23;20088;-78
2022/12/01 09:25:13;;;;;;;26.05;12.20;;;6.30;99.90;;;;;;6131745;23;20013;-78
2022/12/01 09:27:39;;;;;;;21.90;10.80;;;6.50;99.90;;;;;;6131858;23;20096;-79
2022/12/01 09:30:05;;;;;;;27.02;11.93;;;6.60;99.90;;;;;;6158197;23;20342;-78
2022/12/01 09:32:31;;;;;;;29.58;12.27;;;6.80;99.90;;;;;;6157712;23;20017;-78
2022/12/01 09:34:57;;;;;;;25.90;12.23;;;6.90;99.90;;;;;;6158193;23;20041;-78
2022/12/01 09:37:22;;;;;;;23.40;12.48;;;7.00;99.90;;;;;;6158139;23;20025;-79
2022/12/01 09:39:48;;;;;;;24.95;11.45;;;7.20;99.90;;;;;;6158092;23;20024;-79
2022/12/01 09:42:17;;;;;;;20.52;10.13;;;7.30;99.90;;;;;;6158116;23;20017;-78
2022/12/01 09:44:56;;;;;;;17.27;8.90;;;7.40;99.90;;;;;;6157588;23;20025;-78
2022/12/01 09:47:34;;;;;;;19.13;9.75;;;7.60;99.90;;;;;;6158152;23;20013;-78
2022/12/01 09:50:24;;;;;;;22.42;9.30;;;7.70;99.90;;;;;;6158060;23;20036;-79
2022/12/01 09:52:55;;;;;;;19.13;9.25;;;7.90;99.90;;;;;;6157572;23;20524;-79
2022/12/01 09:55:24;;;;;;;21.95;9.73;;;8.20;99.90;;;;;;6157913;23;20036;-78
2022/12/01 09:57:53;;;;;;;18.42;9.40;;;8.30;99.90;;;;;;6131345;23;20021;-78
2022/12/01 10:00:20;;;;;;;21.00;8.02;;;8.40;99.90;;;;;;6131487;23;20438;-78
2022/12/01 10:03:10;;;;;;;17.42;8.15;;;8.50;99.90;;;;;;6157559;23;20484;-78
2022/12/01 10:05:51;;;;;;;16.73;8.25;;;8.50;99.90;;;;;;6157587;23;20530;-78
2022/12/01 10:08:25;;;;;;;17.17;8.88;;;8.60;99.90;;;;;;6157680;23;20077;-78
2022/12/01 10:10:53;;;;;;;15.15;8.15;;;8.60;99.90;;;;;;6131524;23;20021;-78
2022/12/01 10:13:19;;;;;;;15.68;7.82;;;8.70;99.90;;;;;;6131433;23;20084;-78
2022/12/01 10:15:52;;;;;;;15.43;7.47;;;8.60;99.90;;;;;;6157190;23;20061;-78
2022/12/01 10:18:44;;;;;;;15.40;7.63;;;8.60;99.90;;;;;;6131282;23;20346;-79
2022/12/01 10:21:21;;;;;;;16.65;7.68;;;8.50;99.90;;;;;;6157462;23;20021;-78
2022/12/01 10:24:04;;;;;;;18.23;9.55;;;8.50;99.90;;;;;;6157167;23;20057;-78
2022/12/01 10:26:52;;;;;;;16.48;8.85;;;8.20;99.90;;;;;;6157673;23;20129;-78
2022/12/01 10:29:44;;;;;;;15.18;7.80;;;7.90;99.90;;;;;;6157689;23;20014;-78
2022/12/01 10:32:18;;;;;;;17.48;8.32;;;7.70;99.90;;;;;;6131120;23;20406;-78
2022/12/01 10:34:46;;;;;;;13.85;6.72;;;7.50;99.90;;;;;;6131224;23;20026;-78
2022/12/01 10:37:21;;;;;;;13.52;6.70;;;7.40;99.90;;;;;;6157329;23;20017;-78
2022/12/01 10:39:50;;;;;;;12.90;6.80;;;7.40;99.90;;;;;;6131219;23;20056;-78
2022/12/01 10:42:36;;;;;;;14.05;7.22;;;7.20;99.90;;;;;;6157608;23;20010;-78
2022/12/01 10:45:12;;;;;;;15.75;7.70;;;7.10;99.90;;;;;;6157404;23;20083;-79
2022/12/01 10:47:49;;;;;;;12.60;6.90;;;7.20;99.90;;;;;;6157500;23;20016;-79
2022/12/01 10:50:26;;;;;;;11.15;5.95;;;7.20;99.90;;;;;;6157100;23;20390;-79
2022/12/01 10:52:52;;;;;;;13.30;7.25;;;7.20;99.90;;;;;;6157103;23;20469;-78
2022/12/01 10:55:32;;;;;;;11.90;6.22;;;7.10;99.90;;;;;;6157441;23;20018;-78
2022/12/01 10:58:01;;;;;;;13.15;6.85;;;7.20;99.90;;;;;;6157435;23;20018;-78
2022/12/01 11:00:34;;;;;;;12.63;6.68;;;7.20;99.90;;;;;;6157412;23;20009;-79
2022/12/01 11:02:59;;;;;;;12.32;6.32;;;7.30;99.90;;;;;;6130967;23;20018;-78
2022/12/01 11:05:30;;;;;;;12.70;6.70;;;7.30;99.90;;;;;;6156982;23;20504;-78
2022/12/01 11:07:56;;;;;;;11.80;5.97;;;7.30;99.90;;;;;;6157121;23;20092;-78
2022/12/01 11:10:22;;;;;;;11.27;6.63;;;7.30;99.90;;;;;;6130909;23;20067;-79
2022/12/01 11:13:03;;;;;;;11.05;6.63;;;7.30;99.90;;;;;;6157216;23;20036;-78
2022/12/01 11:15:48;;;;;;;11.43;6.25;;;7.20;99.90;;;;;;6156895;23;20055;-78
2022/12/01 11:18:28;;;;;;;14.35;6.30;;;7.30;99.90;;;;;;6127466;23;20446;-78
2022/12/01 11:21:11;;;;;;;11.82;5.57;;;7.20;99.90;;;;;;6127680;23;20024;-78
2022/12/01 11:23:43;;;;;;;12.35;7.28;;;7.20;99.90;;;;;;6127688;23;20045;-78
2022/12/01 11:26:14;;;;;;;13.32;6.43;;;7.30;99.90;;;;;;6127821;23;20014;-79
2022/12/01 11:28:51;;;;;;;13.60;7.30;;;7.30;99.90;;;;;;6101453;23;20506;-78
2022/12/01 11:31:17;;;;;;;12.52;6.72;;;7.30;99.90;;;;;;6101350;23;20454;-78
2022/12/01 11:33:51;;;;;;;12.68;7.68;;;7.40;99.90;;;;;;6101176;23;20506;-78
2022/12/01 11:36:44;;;;;;;13.25;6.30;;;7.50;99.90;;;;;;6101313;23;20022;-78
2022/12/01 11:39:21;;;;;;;12.35;6.65;;;7.60;99.90;;;;;;6085644;23;20346;-78
2022/12/01 11:41:53;;;;;;;13.10;7.07;;;7.70;99.90;;;;;;6101348;23;20021;-78
2022/12/01 11:44:19;;;;;;;15.18;7.60;;;7.70;99.90;;;;;;6127224;23;20431;-78
2022/12/01 11:46:46;;;;;;;12.52;8.25;;;7.80;99.90;;;;;;6101201;23;20025;-78
2022/12/01 11:49:18;;;;;;;14.60;7.43;;;7.70;99.90;;;;;;6127039;23;20486;-78
2022/12/01 11:51:44;;;;;;;17.08;8.75;;;7.80;99.90;;;;;;6126881;23;20396;-78
2022/12/01 11:54:18;;;;;;;16.45;9.02;;;7.80;99.90;;;;;;6101010;23;20442;-78
2022/12/01 11:56:46;;;;;;;17.75;9.93;;;7.90;99.90;;;;;;6127367;23;20010;-78
2022/12/01 11:59:15;;;;;;;20.20;10.85;;;8.00;99.90;;;;;;6127052;23;20481;-78
2022/12/01 12:01:50;;;;;;;19.42;10.20;;;8.10;99.90;;;;;;6127276;23;20018;-78
2022/12/01 12:04:39;;;;;;;19.40;10.45;;;8.10;99.90;;;;;;6127093;23;20024;-78
2022/12/01 12:07:17;;;;;;;18.63;10.90;;;8.10;99.90;;;;;;6101043;23;20014;-78
2022/12/01 12:10:01;;;;;;;23.20;11.10;;;7.90;99.90;;;;;;6127170;23;20024;-78
2022/12/01 12:12:54;;;;;;;20.80;10.60;;;7.70;99.90;;;;;;6126088;23;20018;-78
2022/12/01 12:15:34;;;;;;;17.65;9.98;;;7.70;99.90;;;;;;6125862;23;20097;-78
2022/12/01 12:18:05;;;;;;;19.30;10.30;;;7.60;99.90;;;;;;6128613;23;20047;-78
2022/12/01 12:20:47;;;;;;;21.05;10.43;;;7.60;99.90;;;;;;6155302;23;20017;-78
2022/12/01 12:23:36;;;;;;;20.05;11.13;;;7.50;99.90;;;;;;6128744;23;20029;-78
2022/12/01 12:26:23;;;;;;;21.20;11.40;;;7.40;99.90;;;;;;6155012;23;20017;-78
2022/12/01 12:29:36;;;;;;;22.33;11.73;;;7.40;99.90;;;;;;6154933;23;20033;-78
2022/12/01 12:32:20;;;;;;;25.77;13.15;;;7.50;99.90;;;;;;5983952;23;20115;-78
2022/12/01 12:34:56;;;;;;;21.10;11.95;;;7.40;99.90;;;;;;6115343;23;20021;-78
2022/12/01 12:37:41;;;;;;;23.90;10.95;;;7.50;99.90;;;;;;6155096;23;20025;-78
2022/12/01 12:40:26;;;;;;;23.17;11.90;;;7.60;99.90;;;;;;6128594;23;20021;-78
2022/12/01 12:42:51;;;;;;;24.75;12.30;;;7.60;99.90;;;;;;6154741;23;20021;-79
2022/12/01 12:45:45;;;;;;;24.73;12.98;;;7.60;99.90;;;;;;6154766;23;20077;-78
2022/12/01 12:48:40;;;;;;;27.95;12.60;;;7.60;99.90;;;;;;6128987;23;20116;-77
2022/12/01 12:51:26;;;;;;;23.65;12.27;;;7.50;99.90;;;;;;6129526;23;20374;-77
2022/12/01 12:53:56;;;;;;;28.17;14.20;;;7.50;99.90;;;;;;6129837;23;20027;-77
2022/12/01 12:56:25;;;;;;;31.20;14.43;;;7.60;99.90;;;;;;6156169;23;20009;-77
2022/12/01 12:59:02;;;;;;;27.45;14.18;;;7.50;99.90;;;;;;6132487;23;20025;-78
2022/12/01 13:01:40;;;;;;;31.05;14.05;;;7.50;99.90;;;;;;6155794;23;20025;-77
2022/12/01 13:04:12;;;;;;;31.15;15.23;;;7.40;99.90;;;;;;6129791;23;20024;-77
2022/12/01 13:06:40;;;;;;;29.70;16.23;;;7.40;99.90;;;;;;6156041;23;20033;-78